createdAt,value
2019-03-25T00:02:13.580Z,7.15
2019-03-25T00:04:46.282Z,6.91
2019-03-25T00:07:18.752Z,6.59
2019-03-25T00:09:51.314Z,6.47
2019-03-25T00:12:24.100Z,6.35
2019-03-25T00:14:56.645Z,6.25
2019-03-25T00:17:29.008Z,6.22
2019-03-25T00:20:01.636Z,6.19
2019-03-25T00:22:34.399Z,6.13
2019-03-25T00:25:07.745Z,6.07
2019-03-25T00:27:40.389Z,6.10
2019-03-25T00:30:19.232Z,6.29
2019-03-25T00:32:52.014Z,6.29
2019-03-25T00:35:33.474Z,6.19
2019-03-25T00:38:06.194Z,6.06
2019-03-25T00:40:38.783Z,5.99
2019-03-25T00:43:11.378Z,5.98
2019-03-25T00:45:47.068Z,5.93
2019-03-25T00:48:19.508Z,5.83
2019-03-25T00:51:09.396Z,5.75
2019-03-25T00:53:41.997Z,5.68
2019-03-25T00:56:20.665Z,5.67
2019-03-25T00:58:53.358Z,5.66
2019-03-25T01:01:26.232Z,5.68
2019-03-25T01:03:58.866Z,5.71
2019-03-25T01:06:31.362Z,5.66
2019-03-25T01:09:08.855Z,5.67
2019-03-25T01:11:49.013Z,5.67
2019-03-25T01:14:16.419Z,5.68
2019-03-25T01:16:48.825Z,5.82
2019-03-25T01:19:21.467Z,5.81
2019-03-25T01:21:57.928Z,5.68
2019-03-25T01:24:30.781Z,5.55
2019-03-25T01:27:09.321Z,5.45
2019-03-25T01:29:41.922Z,5.35
2019-03-25T01:32:25.032Z,5.25
2019-03-25T01:34:57.907Z,5.14
2019-03-25T01:37:33.309Z,5.07
2019-03-25T01:40:06.253Z,5.01
2019-03-25T01:42:54.028Z,4.96
2019-03-25T01:45:26.655Z,4.93
2019-03-25T01:48:00.389Z,4.96
2019-03-25T01:50:32.840Z,4.94
2019-03-25T01:53:05.792Z,5.08
2019-03-25T01:55:38.434Z,5.20
2019-03-25T01:58:18.428Z,5.17
2019-03-25T02:00:50.875Z,5.04
2019-03-25T02:03:29.182Z,4.82
2019-03-25T02:06:01.685Z,4.62
2019-03-25T02:08:37.220Z,4.45
2019-03-25T02:11:09.693Z,4.36
2019-03-25T02:13:44.932Z,4.29
2019-03-25T02:16:17.530Z,4.28
2019-03-25T02:18:56.243Z,4.27
2019-03-25T02:21:28.613Z,4.27
2019-03-25T02:24:05.410Z,4.27
2019-03-25T02:26:37.855Z,4.30
2019-03-25T02:29:14.292Z,4.50
2019-03-25T02:31:46.941Z,4.63
2019-03-25T02:34:37.836Z,4.65
2019-03-25T02:37:10.331Z,4.63
2019-03-25T02:39:42.542Z,4.47
2019-03-25T02:42:15.330Z,4.32
2019-03-25T02:44:53.977Z,4.26
2019-03-25T02:47:26.497Z,4.08
2019-03-25T02:50:02.341Z,3.93
2019-03-25T02:52:34.937Z,3.87
2019-03-25T02:55:10.577Z,3.73
2019-03-25T02:57:44.168Z,3.80
2019-03-25T03:00:34.896Z,3.84
2019-03-25T03:03:09.121Z,3.78
2019-03-25T03:05:41.584Z,3.74
2019-03-25T03:08:14.074Z,3.88
2019-03-25T03:10:46.674Z,3.99
2019-03-25T03:13:19.341Z,4.11
2019-03-25T03:15:55.151Z,4.17
2019-03-25T03:18:27.829Z,4.13
2019-03-25T03:21:00.382Z,4.01
2019-03-25T03:23:32.988Z,3.92
2019-03-25T03:26:08.621Z,3.86
2019-03-25T03:28:41.069Z,3.86
2019-03-25T03:31:20.596Z,3.79
2019-03-25T03:33:53.173Z,3.69
2019-03-25T03:36:36.467Z,3.62
2019-03-25T03:39:09.787Z,3.49
2019-03-25T03:41:42.131Z,3.61
2019-03-25T03:44:14.486Z,3.57
2019-03-25T03:46:57.811Z,3.63
2019-03-25T03:49:30.395Z,3.82
2019-03-25T03:52:02.828Z,3.78
2019-03-25T03:54:35.775Z,3.65
2019-03-25T03:57:19.629Z,3.47
2019-03-25T03:59:52.671Z,3.36
2019-03-25T04:02:25.313Z,3.24
2019-03-25T04:04:57.913Z,3.21
2019-03-25T04:07:33.577Z,3.16
2019-03-25T04:10:06.392Z,3.12
2019-03-25T04:12:49.759Z,3.02
2019-03-25T04:15:30.717Z,2.99
2019-03-25T04:18:03.822Z,3.00
2019-03-25T04:20:36.288Z,2.99
2019-03-25T04:23:08.781Z,2.97
2019-03-25T04:25:41.165Z,2.92
2019-03-25T04:28:13.649Z,2.88
2019-03-25T04:30:46.170Z,2.86
2019-03-25T04:33:28.289Z,2.86
2019-03-25T04:36:00.958Z,2.83
2019-03-25T04:38:40.967Z,2.88
2019-03-25T04:41:13.658Z,3.04
2019-03-25T04:43:46.164Z,3.34
2019-03-25T04:46:18.487Z,3.68
2019-03-25T04:48:54.535Z,3.79
2019-03-25T04:51:27.059Z,3.89
2019-03-25T04:54:08.502Z,3.89
2019-03-25T04:56:41.117Z,3.95
2019-03-25T04:59:17.663Z,4.03
2019-03-25T05:01:50.074Z,4.20
2019-03-25T05:04:25.400Z,4.14
2019-03-25T05:06:57.963Z,4.02
2019-03-25T05:09:42.550Z,3.90
2019-03-25T05:12:15.030Z,3.87
2019-03-25T05:14:47.603Z,3.86
2019-03-25T05:17:20.309Z,3.92
2019-03-25T05:20:03.379Z,3.89
2019-03-25T05:22:35.983Z,3.84
2019-03-25T05:25:11.896Z,3.77
2019-03-25T05:27:44.500Z,3.55
2019-03-25T05:30:24.328Z,3.47
2019-03-25T05:32:56.963Z,3.41
2019-03-25T05:35:29.505Z,3.27
2019-03-25T05:38:02.129Z,3.17
2019-03-25T05:40:37.883Z,3.24
2019-03-25T05:43:10.483Z,3.86
2019-03-25T05:45:49.159Z,4.66
2019-03-25T05:48:25.821Z,5.17
2019-03-25T05:51:06.193Z,5.86
2019-03-25T05:53:38.937Z,6.45
2019-03-25T05:56:14.827Z,6.99
2019-03-25T05:58:47.600Z,7.17
2019-03-25T06:01:20.524Z,7.75
2019-03-25T06:03:58.979Z,8.19
2019-03-25T06:06:31.660Z,8.52
2019-03-25T06:09:04.845Z,9.13
2019-03-25T06:11:45.424Z,9.70
2019-03-25T06:14:18.135Z,10.29
2019-03-25T06:16:57.182Z,10.63
2019-03-25T06:19:29.690Z,10.59
2019-03-25T06:22:02.345Z,11.06
2019-03-25T06:24:35.938Z,11.60
2019-03-25T06:27:14.480Z,12.10
2019-03-25T06:29:46.657Z,11.94
2019-03-25T06:32:22.259Z,12.64
2019-03-25T06:34:54.829Z,13.01
2019-03-25T06:37:30.215Z,13.43
2019-03-25T06:40:03.085Z,13.67
2019-03-25T06:42:41.610Z,13.79
2019-03-25T06:45:14.898Z,14.13
2019-03-25T06:47:56.851Z,14.57
2019-03-25T06:50:29.567Z,15.12
2019-03-25T06:53:06.371Z,15.28
2019-03-25T06:55:39.094Z,16.22
2019-03-25T06:58:14.672Z,16.88
2019-03-25T07:00:47.758Z,17.20
2019-03-25T07:03:29.906Z,17.77
2019-03-25T07:06:02.483Z,17.61
2019-03-25T07:08:41.057Z,18.43
2019-03-25T07:11:13.969Z,18.93
2019-03-25T07:13:49.438Z,19.38
2019-03-25T07:16:21.850Z,19.47
2019-03-25T07:19:00.412Z,19.21
2019-03-25T07:21:32.938Z,19.38
2019-03-25T07:24:11.394Z,19.42
2019-03-25T07:26:44.044Z,19.27
2019-03-25T07:29:19.477Z,19.89
2019-03-25T07:31:54.924Z,19.83
2019-03-25T07:34:27.508Z,20.41
2019-03-25T07:37:00.071Z,20.36
2019-03-25T07:39:41.836Z,20.07
2019-03-25T07:42:14.447Z,20.19
2019-03-25T07:44:54.136Z,20.76
2019-03-25T07:47:26.990Z,21.38
2019-03-25T07:49:59.691Z,21.53
2019-03-25T07:52:33.361Z,22.00
2019-03-25T07:55:10.696Z,21.72
2019-03-25T07:57:48.218Z,22.65
2019-03-25T08:00:24.900Z,22.96
2019-03-25T08:02:57.822Z,23.53
2019-03-25T08:05:30.339Z,24.54
2019-03-25T08:08:02.801Z,24.39
2019-03-25T08:10:39.060Z,24.02
2019-03-25T08:13:11.831Z,24.55
2019-03-25T08:15:54.882Z,24.55
2019-03-25T08:18:27.621Z,24.49
2019-03-25T08:21:00.186Z,24.76
2019-03-25T08:23:32.971Z,24.19
2019-03-25T08:26:16.292Z,22.74
2019-03-25T08:28:48.991Z,24.44
2019-03-25T08:31:23.000Z,25.50
2019-03-25T08:33:55.891Z,26.39
2019-03-25T08:36:31.493Z,27.29
2019-03-25T08:39:04.663Z,27.76
2019-03-25T08:41:49.512Z,28.21
2019-03-25T08:44:21.977Z,27.90
2019-03-25T08:46:54.605Z,27.58
2019-03-25T08:49:28.835Z,27.41
2019-03-25T08:52:10.393Z,27.04
2019-03-25T08:54:43.219Z,26.99
2019-03-25T08:57:15.729Z,28.01
2019-03-25T08:59:48.766Z,27.95
2019-03-25T09:02:21.706Z,28.14
2019-03-25T09:04:55.075Z,27.04
2019-03-25T09:07:27.671Z,27.87
2019-03-25T09:10:01.173Z,28.69
2019-03-25T09:12:33.878Z,26.05
2019-03-25T09:15:07.388Z,28.08
2019-03-25T09:17:44.572Z,28.71
2019-03-25T09:20:17.751Z,29.19
2019-03-25T09:22:50.973Z,25.07
2019-03-25T09:25:23.836Z,25.31
2019-03-25T09:27:56.467Z,25.90
2019-03-25T09:31:22.196Z,24.46
2019-03-25T09:33:55.518Z,25.04
2019-03-25T09:36:28.449Z,26.73
2019-03-25T09:39:01.066Z,27.90
2019-03-25T09:41:33.584Z,29.02
2019-03-25T09:44:07.025Z,29.61
2019-03-25T09:46:44.414Z,27.85
2019-03-25T09:49:16.917Z,27.12
2019-03-25T09:51:49.633Z,24.79
2019-03-25T09:54:23.437Z,27.66
2019-03-25T09:56:56.906Z,29.12
2019-03-25T09:59:31.272Z,30.20
2019-03-25T10:02:03.931Z,31.10
2019-03-25T10:04:36.394Z,29.99
2019-03-25T10:07:08.738Z,26.48
2019-03-25T10:09:41.845Z,28.10
2019-03-25T10:12:15.867Z,29.10
2019-03-25T10:14:48.400Z,29.48
2019-03-25T10:17:21.046Z,30.26
2019-03-25T10:19:55.486Z,30.59
2019-03-25T10:22:30.539Z,28.95
2019-03-25T10:25:03.817Z,26.62
2019-03-25T10:27:37.062Z,26.84
2019-03-25T10:30:12.291Z,28.81
2019-03-25T10:32:44.879Z,28.08
2019-03-25T10:35:25.363Z,27.27
2019-03-25T10:37:58.259Z,29.91
2019-03-25T10:40:30.813Z,31.05
2019-03-25T10:43:03.572Z,32.00
2019-03-25T10:45:36.538Z,30.94
2019-03-25T10:48:09.875Z,29.98
2019-03-25T10:50:43.022Z,30.73
2019-03-25T10:53:16.762Z,28.51
2019-03-25T10:55:49.682Z,25.94
2019-03-25T10:58:22.423Z,25.85
2019-03-25T11:00:55.788Z,27.29
2019-03-25T11:03:29.453Z,24.37
2019-03-25T11:06:02.995Z,26.75
2019-03-25T11:08:35.669Z,25.32
2019-03-25T11:11:08.277Z,24.61
2019-03-25T11:13:40.993Z,24.69
2019-03-25T11:16:15.479Z,27.59
2019-03-25T11:18:48.075Z,27.52
2019-03-25T11:21:27.442Z,26.47
2019-03-25T11:24:00.733Z,28.21
2019-03-25T11:26:34.003Z,29.75
2019-03-25T11:29:08.664Z,26.86
2019-03-25T11:31:41.301Z,28.74
2019-03-25T11:34:14.005Z,29.14
2019-03-25T11:36:46.463Z,28.01
2019-03-25T11:39:19.599Z,28.78
2019-03-25T11:41:52.928Z,27.71
2019-03-25T11:44:25.634Z,27.58
2019-03-25T11:46:58.082Z,27.45
2019-03-25T11:49:34.021Z,27.12
2019-03-25T11:52:11.170Z,27.47
2019-03-25T11:54:44.384Z,27.68
2019-03-25T11:57:17.004Z,27.93
2019-03-25T11:59:50.265Z,26.87
2019-03-25T12:02:23.073Z,27.63
2019-03-25T12:05:15.389Z,28.29
2019-03-25T12:07:48.190Z,28.62
2019-03-25T12:10:20.959Z,28.37
2019-03-25T12:12:56.782Z,25.07
2019-03-25T12:15:29.351Z,24.49
2019-03-25T12:18:02.142Z,23.97
2019-03-25T12:20:42.247Z,25.25
2019-03-25T12:23:25.777Z,27.15
2019-03-25T12:25:50.915Z,26.50
2019-03-25T12:28:23.609Z,26.78
2019-03-25T12:30:56.290Z,26.68
2019-03-25T12:33:29.118Z,25.33
2019-03-25T12:36:03.033Z,25.88
2019-03-25T12:38:36.481Z,27.26
2019-03-25T12:41:10.281Z,26.95
2019-03-25T12:43:43.503Z,23.33
2019-03-25T12:46:17.595Z,22.02
2019-03-25T12:48:51.864Z,22.74
2019-03-25T12:51:24.286Z,23.00
2019-03-25T12:53:57.080Z,22.52
2019-03-25T12:56:30.015Z,23.31
2019-03-25T12:59:02.647Z,23.61
2019-03-25T13:01:35.988Z,22.33
2019-03-25T13:04:09.730Z,23.97
2019-03-25T13:06:43.344Z,23.41
2019-03-25T13:09:16.172Z,24.22
2019-03-25T13:11:49.767Z,24.66
2019-03-25T13:14:22.670Z,25.42
2019-03-25T13:16:56.157Z,24.08
2019-03-25T13:19:29.883Z,24.25
2019-03-25T13:22:02.460Z,23.18
2019-03-25T13:24:35.460Z,24.79
2019-03-25T13:27:16.135Z,23.50
2019-03-25T13:29:52.701Z,22.29
2019-03-25T13:32:23.349Z,22.06
2019-03-25T13:34:57.320Z,22.47
2019-03-25T13:37:30.386Z,21.96
2019-03-25T13:40:04.863Z,22.13
2019-03-25T13:42:37.441Z,23.11
2019-03-25T13:45:11.240Z,22.60
2019-03-25T13:47:43.928Z,22.53
2019-03-25T13:50:25.132Z,22.86
2019-03-25T13:52:57.999Z,22.05
2019-03-25T13:55:30.996Z,23.08
2019-03-25T13:58:03.894Z,24.06
2019-03-25T14:00:42.523Z,24.74
2019-03-25T14:03:15.980Z,23.02
2019-03-25T14:05:48.979Z,23.60
2019-03-25T14:08:21.809Z,23.35
2019-03-25T14:10:56.151Z,22.96
2019-03-25T14:13:32.558Z,21.91
2019-03-25T14:16:07.885Z,21.30
2019-03-25T14:18:42.670Z,21.68
2019-03-25T14:21:16.158Z,21.70
2019-03-25T14:23:53.422Z,21.27
2019-03-25T14:26:31.450Z,21.34
2019-03-25T14:29:06.923Z,21.39
2019-03-25T14:31:46.417Z,21.08
2019-03-25T14:34:23.451Z,20.76
2019-03-25T14:37:01.942Z,21.27
2019-03-25T14:39:37.413Z,21.04
2019-03-25T14:42:14.522Z,21.00
2019-03-25T14:44:50.220Z,21.70
2019-03-25T14:47:28.139Z,22.26
2019-03-25T14:50:04.907Z,21.93
2019-03-25T14:52:39.678Z,22.10
2019-03-25T14:55:18.251Z,22.04
2019-03-25T14:57:52.992Z,21.54
2019-03-25T15:00:28.042Z,20.89
2019-03-25T15:03:05.330Z,20.79
2019-03-25T15:05:41.977Z,20.91
2019-03-25T15:08:18.850Z,20.42
2019-03-25T15:11:02.176Z,20.33
2019-03-25T15:13:38.173Z,19.91
2019-03-25T15:16:15.471Z,19.89
2019-03-25T15:18:53.584Z,19.72
2019-03-25T15:21:29.837Z,20.18
2019-03-25T15:24:07.130Z,20.62
2019-03-25T15:26:46.280Z,20.57
2019-03-25T15:29:21.996Z,20.69
2019-03-25T15:31:58.588Z,19.93
2019-03-25T15:34:35.536Z,19.85
2019-03-25T15:37:15.977Z,20.05
2019-03-25T15:39:54.107Z,19.82
2019-03-25T15:42:34.933Z,19.22
2019-03-25T15:45:13.806Z,19.06
2019-03-25T15:47:48.470Z,19.10
2019-03-25T15:50:24.732Z,19.15
2019-03-25T15:53:15.518Z,19.25
2019-03-25T15:55:53.524Z,19.48
2019-03-25T15:58:31.066Z,19.39
2019-03-25T16:01:09.513Z,19.33
2019-03-25T16:03:57.696Z,19.57
2019-03-25T16:06:34.065Z,19.13
2019-03-25T16:09:13.680Z,19.15
2019-03-25T16:11:49.219Z,19.51
2019-03-25T16:14:40.321Z,19.24
2019-03-25T16:17:21.409Z,19.25
2019-03-25T16:19:58.323Z,19.09
2019-03-25T16:22:35.445Z,19.15
2019-03-25T16:25:12.631Z,18.85
2019-03-25T16:27:55.671Z,18.58
2019-03-25T16:30:38.131Z,18.49
2019-03-25T16:33:13.289Z,18.53
2019-03-25T16:35:52.217Z,18.18
2019-03-25T16:38:34.898Z,18.12
2019-03-25T16:41:13.473Z,17.92
2019-03-25T16:43:49.712Z,17.76
2019-03-25T16:46:26.610Z,17.56
2019-03-25T16:49:04.037Z,17.46
2019-03-25T16:51:40.570Z,17.33
2019-03-25T16:54:24.743Z,17.07
2019-03-25T16:57:02.902Z,16.80
2019-03-25T16:59:42.758Z,16.47
2019-03-25T17:02:19.799Z,16.39
2019-03-25T17:04:58.325Z,16.08
2019-03-25T17:07:38.244Z,15.94
2019-03-25T17:10:15.488Z,15.66
2019-03-25T17:12:55.649Z,15.56
2019-03-25T17:15:36.318Z,15.40
2019-03-25T17:18:20.000Z,15.28
2019-03-25T17:20:59.139Z,15.15
2019-03-25T17:23:38.957Z,15.04
2019-03-25T17:26:26.329Z,14.89
2019-03-25T17:29:03.460Z,14.73
2019-03-25T17:31:41.365Z,14.59
2019-03-25T17:34:18.359Z,14.45
2019-03-25T17:36:59.544Z,14.32
2019-03-25T17:39:38.433Z,14.23
2019-03-25T17:42:14.406Z,14.13
2019-03-25T17:44:50.539Z,14.06
2019-03-25T17:47:27.399Z,13.94
2019-03-25T17:50:04.233Z,13.80
2019-03-25T17:52:42.920Z,13.77
2019-03-25T17:55:18.360Z,13.63
2019-03-25T17:57:53.741Z,13.43
2019-03-25T18:01:32.879Z,13.36
2019-03-25T18:04:08.047Z,13.27
2019-03-25T18:06:46.039Z,13.20
2019-03-25T18:09:31.765Z,13.10
2019-03-25T18:12:09.818Z,12.98
2019-03-25T18:14:45.336Z,12.82
2019-03-25T18:17:22.987Z,12.72
2019-03-25T18:20:01.119Z,12.61
2019-03-25T18:22:41.761Z,12.53
2019-03-25T18:25:19.031Z,12.44
2019-03-25T18:27:55.405Z,12.30
2019-03-25T18:30:40.354Z,12.18
2019-03-25T18:33:18.435Z,12.11
2019-03-25T18:35:55.374Z,12.01
2019-03-25T18:38:35.447Z,11.88
2019-03-25T18:41:13.563Z,11.83
2019-03-25T18:43:58.149Z,11.76
2019-03-25T18:46:33.524Z,11.74
2019-03-25T18:49:23.658Z,11.67
2019-03-25T18:51:59.625Z,11.61
2019-03-25T18:54:36.847Z,11.56
2019-03-25T18:57:12.353Z,11.46
2019-03-25T18:59:48.551Z,11.39
2019-03-25T19:02:26.552Z,11.31
2019-03-25T19:05:04.527Z,11.24
2019-03-25T19:07:39.437Z,11.33
2019-03-25T19:10:18.930Z,11.20
2019-03-25T19:12:56.037Z,11.18
2019-03-25T19:15:32.092Z,11.17
2019-03-25T19:18:08.760Z,11.02
2019-03-25T19:20:47.597Z,10.96
2019-03-25T19:23:25.446Z,10.92
2019-03-25T19:26:05.683Z,10.93
2019-03-25T19:28:42.188Z,10.92
2019-03-25T19:31:18.727Z,10.98
2019-03-25T19:33:53.054Z,11.00
2019-03-25T19:36:32.947Z,11.11
2019-03-25T19:39:11.180Z,11.14
2019-03-25T19:41:48.777Z,11.13
2019-03-25T19:44:25.365Z,11.13
2019-03-25T19:47:04.359Z,11.07
2019-03-25T19:49:50.243Z,11.07
2019-03-25T19:52:48.634Z,11.04
2019-03-25T19:55:30.262Z,11.09
2019-03-25T19:58:07.695Z,10.94
2019-03-25T20:00:48.459Z,10.96
2019-03-25T20:03:39.600Z,10.97
2019-03-25T20:06:26.462Z,10.89
2019-03-25T20:09:02.590Z,10.94
2019-03-25T20:11:52.589Z,10.84
2019-03-25T20:14:29.379Z,10.82
2019-03-25T20:17:15.541Z,10.89
2019-03-25T20:19:51.848Z,10.89
2019-03-25T20:22:28.180Z,11.05
2019-03-25T20:25:10.422Z,10.90
2019-03-25T20:27:50.070Z,10.88
2019-03-25T20:30:26.339Z,10.83
2019-03-25T20:33:02.864Z,10.87
2019-03-25T20:36:02.906Z,10.87
2019-03-25T20:38:41.707Z,10.87
2019-03-25T20:41:20.936Z,10.88
2019-03-25T20:43:56.310Z,10.85
2019-03-25T20:46:38.257Z,10.78
2019-03-25T20:49:17.824Z,10.84
2019-03-25T20:51:56.056Z,11.04
2019-03-25T20:54:32.200Z,11.12
2019-03-25T20:57:13.205Z,11.01
2019-03-25T20:59:48.141Z,11.03
2019-03-25T21:02:24.028Z,11.05
2019-03-25T21:04:59.224Z,10.98
2019-03-25T21:07:32.713Z,10.88
2019-03-25T21:10:06.510Z,10.84
2019-03-25T21:12:40.893Z,10.86
2019-03-25T21:15:16.176Z,10.92
2019-03-25T21:17:49.933Z,10.83
2019-03-25T21:20:25.631Z,10.86
2019-03-25T21:22:59.277Z,10.87
2019-03-25T21:25:32.480Z,10.70
2019-03-25T21:28:05.769Z,10.64
2019-03-25T21:30:47.853Z,10.59
2019-03-25T21:33:14.459Z,10.54
2019-03-25T21:35:47.641Z,10.72
2019-03-25T21:38:20.876Z,10.68
2019-03-25T21:40:53.819Z,10.75
2019-03-25T21:43:26.593Z,10.88
2019-03-25T21:45:59.411Z,10.77
2019-03-25T21:48:32.360Z,10.79
2019-03-25T21:51:05.209Z,10.77
2019-03-25T21:53:38.330Z,10.94
2019-03-25T21:56:11.603Z,11.13
2019-03-25T21:58:44.466Z,11.15
2019-03-25T22:01:17.030Z,11.27
2019-03-25T22:03:50.114Z,11.32
2019-03-25T22:06:23.230Z,11.35
2019-03-25T22:08:56.502Z,11.31
2019-03-25T22:11:29.184Z,11.32
2019-03-25T22:14:03.108Z,11.34
2019-03-25T22:16:35.772Z,11.27
2019-03-25T22:19:08.830Z,11.30
2019-03-25T22:21:41.341Z,11.25
2019-03-25T22:24:14.164Z,11.26
2019-03-25T22:26:46.859Z,11.31
2019-03-25T22:29:19.612Z,11.36
2019-03-25T22:31:52.329Z,11.30
2019-03-25T22:34:24.970Z,11.22
2019-03-25T22:36:57.842Z,11.18
2019-03-25T22:39:30.807Z,11.14
2019-03-25T22:42:03.785Z,11.09
2019-03-25T22:44:36.444Z,11.10
2019-03-25T22:47:09.188Z,11.19
2019-03-25T22:49:41.926Z,11.14
2019-03-25T22:52:15.361Z,11.15
2019-03-25T22:54:47.956Z,11.17
2019-03-25T22:57:20.604Z,11.31
2019-03-25T22:59:56.937Z,11.22
2019-03-25T23:02:29.531Z,11.07
2019-03-25T23:05:05.782Z,11.00
2019-03-25T23:07:38.527Z,10.88
2019-03-25T23:10:19.530Z,10.78
2019-03-25T23:12:52.188Z,10.71
2019-03-25T23:15:25.278Z,10.76
2019-03-25T23:17:58.342Z,10.72
2019-03-25T23:20:33.939Z,10.61
2019-03-25T23:23:07.367Z,10.61
2019-03-25T23:25:43.567Z,10.49
2019-03-25T23:28:16.067Z,10.42
2019-03-25T23:30:51.383Z,10.34
2019-03-25T23:33:23.924Z,10.27
2019-03-25T23:36:00.522Z,10.13
2019-03-25T23:38:33.670Z,10.12
2019-03-25T23:41:16.636Z,10.10
2019-03-25T23:43:49.169Z,10.04
2019-03-25T23:46:24.969Z,9.96
2019-03-25T23:48:57.500Z,9.90
2019-03-25T23:51:40.707Z,9.82
2019-03-25T23:54:14.764Z,9.67
2019-03-25T23:56:50.606Z,9.56
2019-03-25T23:59:24.840Z,9.49
